sensor_id;sensor_type;location;lat;lon;timestamp;temperature;humidity
17599;DHT22;8918;52.092;5.232;2022-08-05T00:00:30;20.80;99.90
17599;DHT22;8918;52.092;5.232;2022-08-05T00:02:56;20.80;99.90
17599;DHT22;8918;52.092;5.232;2022-08-05T00:05:22;20.90;99.90
17599;DHT22;8918;52.092;5.232;2022-08-05T00:07:47;20.80;99.90
17599;DHT22;8918;52.092;5.232;2022-08-05T00:10:13;20.80;99.90
17599;DHT22;8918;52.092;5.232;2022-08-05T00:12:38;20.80;99.90
17599;DHT22;8918;52.092;5.232;2022-08-05T00:15:04;20.70;99.90
17599;DHT22;8918;52.092;5.232;2022-08-05T00:17:30;20.70;99.90
17599;DHT22;8918;52.092;5.232;2022-08-05T00:19:56;20.70;99.90
17599;DHT22;8918;52.092;5.232;2022-08-05T00:22:21;20.70;99.90
17599;DHT22;8918;52.092;5.232;2022-08-05T00:24:47;20.70;99.90
17599;DHT22;8918;52.092;5.232;2022-08-05T00:27:12;20.70;99.90
17599;DHT22;8918;52.092;5.232;2022-08-05T00:29:38;20.70;99.90
17599;DHT22;8918;52.092;5.232;2022-08-05T00:32:04;20.60;99.90
17599;DHT22;8918;52.092;5.232;2022-08-05T00:34:31;20.60;99.90
17599;DHT22;8918;52.092;5.232;2022-08-05T00:36:57;20.50;99.90
17599;DHT22;8918;52.092;5.232;2022-08-05T00:39:22;20.60;99.90
17599;DHT22;8918;52.092;5.232;2022-08-05T00:41:48;20.50;99.90
17599;DHT22;8918;52.092;5.232;2022-08-05T00:44:14;20.50;99.90
17599;DHT22;8918;52.092;5.232;2022-08-05T00:46:39;20.50;99.90
17599;DHT22;8918;52.092;5.232;2022-08-05T00:49:05;20.50;99.90
17599;DHT22;8918;52.092;5.232;2022-08-05T00:51:31;20.50;99.90
17599;DHT22;8918;52.092;5.232;2022-08-05T00:53:56;20.40;99.90
17599;DHT22;8918;52.092;5.232;2022-08-05T00:56:22;20.40;99.90
17599;DHT22;8918;52.092;5.232;2022-08-05T00:58:47;20.40;99.90
17599;DHT22;8918;52.092;5.232;2022-08-05T01:01:13;20.40;99.90
17599;DHT22;8918;52.092;5.232;2022-08-05T01:03:41;20.40;99.90
17599;DHT22;8918;52.092;5.232;2022-08-05T01:06:08;20.40;99.90
17599;DHT22;8918;52.092;5.232;2022-08-05T01:08:34;20.30;99.90
17599;DHT22;8918;52.092;5.232;2022-08-05T01:11:05;20.30;99.90
17599;DHT22;8918;52.092;5.232;2022-08-05T01:13:55;20.30;99.90
17599;DHT22;8918;52.092;5.232;2022-08-05T01:19:25;20.30;99.90
17599;DHT22;8918;52.092;5.232;2022-08-05T01:31:33;20.20;99.90
17599;DHT22;8918;52.092;5.232;2022-08-05T01:34:08;20.20;99.90
17599;DHT22;8918;52.092;5.232;2022-08-05T01:36:43;20.20;99.90
17599;DHT22;8918;52.092;5.232;2022-08-05T01:39:12;20.20;99.90
17599;DHT22;8918;52.092;5.232;2022-08-05T01:41:39;20.20;99.90
17599;DHT22;8918;52.092;5.232;2022-08-05T01:44:07;20.20;99.90
17599;DHT22;8918;52.092;5.232;2022-08-05T01:46:35;20.20;99.90
17599;DHT22;8918;52.092;5.232;2022-08-05T01:49:02;20.20;99.90
17599;DHT22;8918;52.092;5.232;2022-08-05T01:51:32;20.20;99.90
17599;DHT22;8918;52.092;5.232;2022-08-05T01:53:58;20.20;99.90
17599;DHT22;8918;52.092;5.232;2022-08-05T01:56:28;20.20;99.90
17599;DHT22;8918;52.092;5.232;2022-08-05T01:58:55;20.20;99.90
17599;DHT22;8918;52.092;5.232;2022-08-05T02:01:22;20.20;99.90
17599;DHT22;8918;52.092;5.232;2022-08-05T02:03:50;20.20;99.90
17599;DHT22;8918;52.092;5.232;2022-08-05T02:06:17;20.10;99.90
17599;DHT22;8918;52.092;5.232;2022-08-05T02:08:44;20.10;99.90
17599;DHT22;8918;52.092;5.232;2022-08-05T02:11:12;20.10;99.90
17599;DHT22;8918;52.092;5.232;2022-08-05T02:14:11;20.00;99.90
17599;DHT22;8918;52.092;5.232;2022-08-05T02:16:46;20.00;99.90
17599;DHT22;8918;52.092;5.232;2022-08-05T02:19:29;20.00;99.90
17599;DHT22;8918;52.092;5.232;2022-08-05T02:22:18;20.00;99.90
17599;DHT22;8918;52.092;5.232;2022-08-05T02:24:49;20.00;99.90
17599;DHT22;8918;52.092;5.232;2022-08-05T02:27:17;20.00;99.90
17599;DHT22;8918;52.092;5.232;2022-08-05T02:29:45;19.90;99.90
17599;DHT22;8918;52.092;5.232;2022-08-05T02:32:14;19.90;99.90
17599;DHT22;8918;52.092;5.232;2022-08-05T02:34:41;19.80;99.90
17599;DHT22;8918;52.092;5.232;2022-08-05T02:37:08;19.80;99.90
17599;DHT22;8918;52.092;5.232;2022-08-05T02:39:36;19.80;99.90
17599;DHT22;8918;52.092;5.232;2022-08-05T02:42:03;19.80;99.90
17599;DHT22;8918;52.092;5.232;2022-08-05T02:44:31;19.80;99.90
17599;DHT22;8918;52.092;5.232;2022-08-05T02:46:58;19.80;99.90
17599;DHT22;8918;52.092;5.232;2022-08-05T02:49:26;19.80;99.90
17599;DHT22;8918;52.092;5.232;2022-08-05T02:51:53;19.70;99.90
17599;DHT22;8918;52.092;5.232;2022-08-05T02:54:21;19.70;99.90
17599;DHT22;8918;52.092;5.232;2022-08-05T02:56:47;19.70;99.90
17599;DHT22;8918;52.092;5.232;2022-08-05T02:59:14;19.70;99.90
17599;DHT22;8918;52.092;5.232;2022-08-05T03:01:41;19.60;99.90
17599;DHT22;8918;52.092;5.232;2022-08-05T03:04:11;19.60;99.90
17599;DHT22;8918;52.092;5.232;2022-08-05T03:06:39;19.60;99.90
17599;DHT22;8918;52.092;5.232;2022-08-05T03:09:06;19.60;99.90
17599;DHT22;8918;52.092;5.232;2022-08-05T03:11:32;19.50;99.90
17599;DHT22;8918;52.092;5.232;2022-08-05T03:13:57;19.50;99.90
17599;DHT22;8918;52.092;5.232;2022-08-05T03:16:25;19.50;99.90
17599;DHT22;8918;52.092;5.232;2022-08-05T03:18:51;19.50;99.90
17599;DHT22;8918;52.092;5.232;2022-08-05T03:21:16;19.50;99.90
17599;DHT22;8918;52.092;5.232;2022-08-05T03:23:43;19.40;99.90
17599;DHT22;8918;52.092;5.232;2022-08-05T03:26:09;19.50;99.90
17599;DHT22;8918;52.092;5.232;2022-08-05T03:28:36;19.40;99.90
17599;DHT22;8918;52.092;5.232;2022-08-05T03:31:02;19.40;99.90
17599;DHT22;8918;52.092;5.232;2022-08-05T03:33:28;19.40;99.90
17599;DHT22;8918;52.092;5.232;2022-08-05T03:35:56;19.40;99.90
17599;DHT22;8918;52.092;5.232;2022-08-05T03:38:25;19.40;99.90
17599;DHT22;8918;52.092;5.232;2022-08-05T03:40:51;19.30;99.90
17599;DHT22;8918;52.092;5.232;2022-08-05T03:43:20;19.30;99.90
17599;DHT22;8918;52.092;5.232;2022-08-05T03:45:49;19.30;99.90
17599;DHT22;8918;52.092;5.232;2022-08-05T03:48:14;19.30;99.90
17599;DHT22;8918;52.092;5.232;2022-08-05T03:53:38;19.30;99.90
17599;DHT22;8918;52.092;5.232;2022-08-05T03:56:16;19.30;99.90
17599;DHT22;8918;52.092;5.232;2022-08-05T03:58:45;19.30;99.90
17599;DHT22;8918;52.092;5.232;2022-08-05T04:01:12;19.30;99.90
17599;DHT22;8918;52.092;5.232;2022-08-05T04:03:41;19.30;99.90
17599;DHT22;8918;52.092;5.232;2022-08-05T04:06:09;19.30;99.90
17599;DHT22;8918;52.092;5.232;2022-08-05T04:08:35;19.20;99.90
17599;DHT22;8918;52.092;5.232;2022-08-05T04:11:02;19.30;99.90
17599;DHT22;8918;52.092;5.232;2022-08-05T04:13:28;19.20;99.90
17599;DHT22;8918;52.092;5.232;2022-08-05T04:15:55;19.20;99.90
17599;DHT22;8918;52.092;5.232;2022-08-05T04:18:24;19.30;99.90
17599;DHT22;8918;52.092;5.232;2022-08-05T04:20:55;19.20;99.90
17599;DHT22;8918;52.092;5.232;2022-08-05T04:23:23;19.20;99.90
17599;DHT22;8918;52.092;5.232;2022-08-05T04:25:49;19.20;99.90
17599;DHT22;8918;52.092;5.232;2022-08-05T04:28:14;19.20;99.90
17599;DHT22;8918;52.092;5.232;2022-08-05T04:30:40;19.20;99.90
17599;DHT22;8918;52.092;5.232;2022-08-05T04:33:05;19.10;99.90
17599;DHT22;8918;52.092;5.232;2022-08-05T04:35:31;19.20;99.90
17599;DHT22;8918;52.092;5.232;2022-08-05T04:37:56;19.10;99.90
17599;DHT22;8918;52.092;5.232;2022-08-05T04:40:22;19.10;99.90
17599;DHT22;8918;52.092;5.232;2022-08-05T04:42:48;19.10;99.90
17599;DHT22;8918;52.092;5.232;2022-08-05T04:45:13;19.10;99.90
17599;DHT22;8918;52.092;5.232;2022-08-05T04:47:39;19.10;99.90
17599;DHT22;8918;52.092;5.232;2022-08-05T04:50:05;19.10;99.90
17599;DHT22;8918;52.092;5.232;2022-08-05T04:52:30;19.00;99.90
17599;DHT22;8918;52.092;5.232;2022-08-05T04:54:56;19.00;99.90
17599;DHT22;8918;52.092;5.232;2022-08-05T04:57:21;19.00;99.90
17599;DHT22;8918;52.092;5.232;2022-08-05T04:59:47;19.00;99.90
17599;DHT22;8918;52.092;5.232;2022-08-05T05:02:12;19.00;99.90
17599;DHT22;8918;52.092;5.232;2022-08-05T05:04:38;18.90;99.90
17599;DHT22;8918;52.092;5.232;2022-08-05T05:07:03;18.90;99.90
17599;DHT22;8918;52.092;5.232;2022-08-05T05:09:29;18.80;99.90
17599;DHT22;8918;52.092;5.232;2022-08-05T05:11:54;18.80;99.90
17599;DHT22;8918;52.092;5.232;2022-08-05T05:14:20;18.70;99.90
17599;DHT22;8918;52.092;5.232;2022-08-05T05:16:45;18.60;99.90
17599;DHT22;8918;52.092;5.232;2022-08-05T05:19:11;18.70;99.90
17599;DHT22;8918;52.092;5.232;2022-08-05T05:21:36;18.60;99.90
17599;DHT22;8918;52.092;5.232;2022-08-05T05:24:02;18.60;99.90
17599;DHT22;8918;52.092;5.232;2022-08-05T05:26:28;18.60;99.90
17599;DHT22;8918;52.092;5.232;2022-08-05T05:28:53;18.60;99.90
17599;DHT22;8918;52.092;5.232;2022-08-05T05:31:19;18.60;99.90
17599;DHT22;8918;52.092;5.232;2022-08-05T05:33:44;18.50;99.90
17599;DHT22;8918;52.092;5.232;2022-08-05T05:36:10;18.60;99.90
17599;DHT22;8918;52.092;5.232;2022-08-05T05:38:36;18.60;99.90
17599;DHT22;8918;52.092;5.232;2022-08-05T05:41:01;18.60;99.90
17599;DHT22;8918;52.092;5.232;2022-08-05T05:43:27;18.60;99.90
17599;DHT22;8918;52.092;5.232;2022-08-05T05:45:52;18.60;99.90
17599;DHT22;8918;52.092;5.232;2022-08-05T05:48:18;18.60;99.90
17599;DHT22;8918;52.092;5.232;2022-08-05T05:50:44;18.60;99.90
17599;DHT22;8918;52.092;5.232;2022-08-05T05:53:12;18.60;99.90
17599;DHT22;8918;52.092;5.232;2022-08-05T05:55:39;18.70;99.90
17599;DHT22;8918;52.092;5.232;2022-08-05T05:58:05;18.70;99.90
17599;DHT22;8918;52.092;5.232;2022-08-05T06:00:30;18.80;99.90
17599;DHT22;8918;52.092;5.232;2022-08-05T06:02:56;18.80;99.90
17599;DHT22;8918;52.092;5.232;2022-08-05T06:05:21;18.80;99.90
17599;DHT22;8918;52.092;5.232;2022-08-05T06:07:47;18.90;99.90
17599;DHT22;8918;52.092;5.232;2022-08-05T06:10:14;18.90;99.90
17599;DHT22;8918;52.092;5.232;2022-08-05T06:12:40;19.00;99.90
17599;DHT22;8918;52.092;5.232;2022-08-05T06:15:06;19.00;99.90
17599;DHT22;8918;52.092;5.232;2022-08-05T06:17:33;18.90;99.90
17599;DHT22;8918;52.092;5.232;2022-08-05T06:19:59;19.00;99.90
17599;DHT22;8918;52.092;5.232;2022-08-05T06:22:30;19.00;99.90
17599;DHT22;8918;52.092;5.232;2022-08-05T06:24:57;19.00;99.90
17599;DHT22;8918;52.092;5.232;2022-08-05T06:27:22;19.00;99.90
17599;DHT22;8918;52.092;5.232;2022-08-05T06:29:48;19.00;99.90
17599;DHT22;8918;52.092;5.232;2022-08-05T06:32:14;19.00;99.90
17599;DHT22;8918;52.092;5.232;2022-08-05T06:34:39;19.00;99.90
17599;DHT22;8918;52.092;5.232;2022-08-05T06:37:05;19.00;99.90
17599;DHT22;8918;52.092;5.232;2022-08-05T06:39:30;19.00;99.90
17599;DHT22;8918;52.092;5.232;2022-08-05T06:41:57;19.10;99.90
17599;DHT22;8918;52.092;5.232;2022-08-05T06:44:23;19.10;99.90
17599;DHT22;8918;52.092;5.232;2022-08-05T06:46:48;19.10;99.90
17599;DHT22;8918;52.092;5.232;2022-08-05T06:49:14;19.10;99.90
17599;DHT22;8918;52.092;5.232;2022-08-05T06:51:39;19.10;99.90
17599;DHT22;8918;52.092;5.232;2022-08-05T06:54:05;19.10;99.90
17599;DHT22;8918;52.092;5.232;2022-08-05T06:56:31;19.10;99.90
17599;DHT22;8918;52.092;5.232;2022-08-05T06:58:57;19.10;99.90
17599;DHT22;8918;52.092;5.232;2022-08-05T07:01:22;19.20;99.90
17599;DHT22;8918;52.092;5.232;2022-08-05T07:03:48;19.20;99.90
17599;DHT22;8918;52.092;5.232;2022-08-05T07:06:14;19.30;99.90
17599;DHT22;8918;52.092;5.232;2022-08-05T07:08:41;19.30;99.90
17599;DHT22;8918;52.092;5.232;2022-08-05T07:11:07;19.40;99.90
17599;DHT22;8918;52.092;5.232;2022-08-05T07:13:33;19.50;99.90
17599;DHT22;8918;52.092;5.232;2022-08-05T07:16:17;19.60;99.90
17599;DHT22;8918;52.092;5.232;2022-08-05T07:19:02;19.60;99.90
17599;DHT22;8918;52.092;5.232;2022-08-05T07:21:28;19.60;99.90
17599;DHT22;8918;52.092;5.232;2022-08-05T07:23:55;19.70;99.90
17599;DHT22;8918;52.092;5.232;2022-08-05T07:26:22;19.80;99.90
17599;DHT22;8918;52.092;5.232;2022-08-05T07:28:47;19.80;99.90
17599;DHT22;8918;52.092;5.232;2022-08-05T07:31:15;19.90;99.90
17599;DHT22;8918;52.092;5.232;2022-08-05T07:33:40;20.00;99.90
17599;DHT22;8918;52.092;5.232;2022-08-05T07:36:06;20.10;99.90
17599;DHT22;8918;52.092;5.232;2022-08-05T07:38:33;20.10;99.90
17599;DHT22;8918;52.092;5.232;2022-08-05T07:40:59;20.10;99.90
17599;DHT22;8918;52.092;5.232;2022-08-05T07:43:24;20.10;99.90
17599;DHT22;8918;52.092;5.232;2022-08-05T07:45:50;20.20;99.90
17599;DHT22;8918;52.092;5.232;2022-08-05T07:48:15;20.20;99.90
17599;DHT22;8918;52.092;5.232;2022-08-05T07:50:41;20.30;99.90
17599;DHT22;8918;52.092;5.232;2022-08-05T07:53:06;20.30;99.90
17599;DHT22;8918;52.092;5.232;2022-08-05T07:55:32;20.40;99.90
17599;DHT22;8918;52.092;5.232;2022-08-05T07:57:58;20.40;99.90
17599;DHT22;8918;52.092;5.232;2022-08-05T08:00:23;20.40;99.90
17599;DHT22;8918;52.092;5.232;2022-08-05T08:02:50;20.40;99.90
17599;DHT22;8918;52.092;5.232;2022-08-05T08:05:15;20.50;99.90
17599;DHT22;8918;52.092;5.232;2022-08-05T08:07:41;20.50;99.90
17599;DHT22;8918;52.092;5.232;2022-08-05T08:10:07;20.60;99.90
17599;DHT22;8918;52.092;5.232;2022-08-05T08:12:32;20.60;99.90
17599;DHT22;8918;52.092;5.232;2022-08-05T08:14:58;20.70;99.90
17599;DHT22;8918;52.092;5.232;2022-08-05T08:17:23;20.80;99.90
17599;DHT22;8918;52.092;5.232;2022-08-05T08:19:49;21.00;99.90
17599;DHT22;8918;52.092;5.232;2022-08-05T08:22:15;21.10;99.90
17599;DHT22;8918;52.092;5.232;2022-08-05T08:24:41;21.20;99.90
17599;DHT22;8918;52.092;5.232;2022-08-05T08:27:06;21.30;99.90
17599;DHT22;8918;52.092;5.232;2022-08-05T08:29:32;21.30;99.90
17599;DHT22;8918;52.092;5.232;2022-08-05T08:31:58;21.40;99.90
17599;DHT22;8918;52.092;5.232;2022-08-05T08:34:25;21.40;99.90
17599;DHT22;8918;52.092;5.232;2022-08-05T08:36:51;21.50;99.90
17599;DHT22;8918;52.092;5.232;2022-08-05T08:39:18;21.50;99.90
17599;DHT22;8918;52.092;5.232;2022-08-05T08:41:46;21.50;99.90
17599;DHT22;8918;52.092;5.232;2022-08-05T08:44:17;21.60;99.90
17599;DHT22;8918;52.092;5.232;2022-08-05T08:46:43;21.60;99.90
17599;DHT22;8918;52.092;5.232;2022-08-05T08:49:13;21.60;99.90
17599;DHT22;8918;52.092;5.232;2022-08-05T08:51:41;21.70;99.90
17599;DHT22;8918;52.092;5.232;2022-08-05T08:54:07;21.60;99.90
17599;DHT22;8918;52.092;5.232;2022-08-05T08:56:36;21.60;99.90
17599;DHT22;8918;52.092;5.232;2022-08-05T08:59:02;21.60;99.90
17599;DHT22;8918;52.092;5.232;2022-08-05T09:01:28;21.60;99.90
17599;DHT22;8918;52.092;5.232;2022-08-05T09:03:53;21.60;99.90
17599;DHT22;8918;52.092;5.232;2022-08-05T09:06:21;21.60;99.90
17599;DHT22;8918;52.092;5.232;2022-08-05T09:08:47;21.60;99.90
17599;DHT22;8918;52.092;5.232;2022-08-05T09:11:13;21.50;99.90
17599;DHT22;8918;52.092;5.232;2022-08-05T09:13:40;21.50;99.90
17599;DHT22;8918;52.092;5.232;2022-08-05T09:16:07;21.50;99.90
17599;DHT22;8918;52.092;5.232;2022-08-05T09:18:35;21.40;99.90
17599;DHT22;8918;52.092;5.232;2022-08-05T09:21:02;21.50;99.90
17599;DHT22;8918;52.092;5.232;2022-08-05T09:23:28;21.60;99.90
17599;DHT22;8918;52.092;5.232;2022-08-05T09:26:08;21.70;99.90
17599;DHT22;8918;52.092;5.232;2022-08-05T09:28:36;21.70;99.90
17599;DHT22;8918;52.092;5.232;2022-08-05T09:31:10;21.70;99.90
17599;DHT22;8918;52.092;5.232;2022-08-05T09:33:49;21.60;99.90
17599;DHT22;8918;52.092;5.232;2022-08-05T09:36:15;21.70;99.90
17599;DHT22;8918;52.092;5.232;2022-08-05T09:38:57;21.60;99.90
17599;DHT22;8918;52.092;5.232;2022-08-05T09:41:23;21.50;99.90
17599;DHT22;8918;52.092;5.232;2022-08-05T09:43:48;21.50;99.90
17599;DHT22;8918;52.092;5.232;2022-08-05T09:46:32;21.40;99.90
17599;DHT22;8918;52.092;5.232;2022-08-05T09:48:59;21.30;99.90
17599;DHT22;8918;52.092;5.232;2022-08-05T09:51:36;21.30;99.90
17599;DHT22;8918;52.092;5.232;2022-08-05T09:54:04;21.20;99.90
17599;DHT22;8918;52.092;5.232;2022-08-05T09:56:37;21.20;99.90
17599;DHT22;8918;52.092;5.232;2022-08-05T09:59:08;21.20;99.90
17599;DHT22;8918;52.092;5.232;2022-08-05T10:01:35;21.20;99.90
17599;DHT22;8918;52.092;5.232;2022-08-05T10:04:05;21.20;99.90
17599;DHT22;8918;52.092;5.232;2022-08-05T10:06:32;21.30;99.90
17599;DHT22;8918;52.092;5.232;2022-08-05T10:09:14;21.30;99.90
17599;DHT22;8918;52.092;5.232;2022-08-05T10:11:42;21.30;99.90
17599;DHT22;8918;52.092;5.232;2022-08-05T10:14:25;21.40;99.90
17599;DHT22;8918;52.092;5.232;2022-08-05T10:16:52;21.30;99.90
17599;DHT22;8918;52.092;5.232;2022-08-05T10:19:23;21.20;99.90
17599;DHT22;8918;52.092;5.232;2022-08-05T10:21:49;21.20;99.90
17599;DHT22;8918;52.092;5.232;2022-08-05T10:24:17;21.20;99.90
17599;DHT22;8918;52.092;5.232;2022-08-05T10:26:44;21.30;99.90
17599;DHT22;8918;52.092;5.232;2022-08-05T10:29:10;21.30;99.90
17599;DHT22;8918;52.092;5.232;2022-08-05T10:31:36;21.40;99.90
17599;DHT22;8918;52.092;5.232;2022-08-05T10:34:07;21.40;99.90
17599;DHT22;8918;52.092;5.232;2022-08-05T10:36:38;21.50;99.90
17599;DHT22;8918;52.092;5.232;2022-08-05T10:39:07;21.50;99.90
17599;DHT22;8918;52.092;5.232;2022-08-05T10:41:39;21.50;99.90
17599;DHT22;8918;52.092;5.232;2022-08-05T10:44:12;21.50;99.90
17599;DHT22;8918;52.092;5.232;2022-08-05T10:46:47;21.40;99.90
17599;DHT22;8918;52.092;5.232;2022-08-05T10:49:12;21.40;99.90
17599;DHT22;8918;52.092;5.232;2022-08-05T10:51:46;21.40;99.90
17599;DHT22;8918;52.092;5.232;2022-08-05T10:54:14;21.30;99.90
17599;DHT22;8918;52.092;5.232;2022-08-05T10:59:25;21.30;99.90
17599;DHT22;8918;52.092;5.232;2022-08-05T11:02:05;21.30;99.90
17599;DHT22;8918;52.092;5.232;2022-08-05T11:04:44;21.30;99.90
17599;DHT22;8918;52.092;5.232;2022-08-05T11:07:11;21.30;99.90
17599;DHT22;8918;52.092;5.232;2022-08-05T11:17:40;21.50;99.90
17599;DHT22;8918;52.092;5.232;2022-08-05T11:20:07;21.60;99.90
17599;DHT22;8918;52.092;5.232;2022-08-05T11:22:55;21.70;99.90
17599;DHT22;8918;52.092;5.232;2022-08-05T11:25:37;21.90;99.90
17599;DHT22;8918;52.092;5.232;2022-08-05T11:36:01;21.70;99.90
17599;DHT22;8918;52.092;5.232;2022-08-05T11:41:25;21.90;99.90
17599;DHT22;8918;52.092;5.232;2022-08-05T11:46:30;22.20;99.90
17599;DHT22;8918;52.092;5.232;2022-08-05T11:48:57;22.20;99.90
17599;DHT22;8918;52.092;5.232;2022-08-05T11:51:23;22.30;99.90
17599;DHT22;8918;52.092;5.232;2022-08-05T11:53:49;22.30;99.90
17599;DHT22;8918;52.092;5.232;2022-08-05T11:56:15;22.40;99.90
17599;DHT22;8918;52.092;5.232;2022-08-05T11:58:44;22.50;99.90
17599;DHT22;8918;52.092;5.232;2022-08-05T12:01:10;22.70;99.90
17599;DHT22;8918;52.092;5.232;2022-08-05T12:03:55;22.70;99.90
17599;DHT22;8918;52.092;5.232;2022-08-05T12:06:25;22.80;99.90
17599;DHT22;8918;52.092;5.232;2022-08-05T12:08:55;22.90;99.90
17599;DHT22;8918;52.092;5.232;2022-08-05T12:11:23;22.90;99.90
17599;DHT22;8918;52.092;5.232;2022-08-05T12:16:18;22.40;99.90
17599;DHT22;8918;52.092;5.232;2022-08-05T12:18:44;22.20;99.90
17599;DHT22;8918;52.092;5.232;2022-08-05T12:21:12;22.00;99.90
17599;DHT22;8918;52.092;5.232;2022-08-05T12:23:38;21.90;99.90
17599;DHT22;8918;52.092;5.232;2022-08-05T12:26:04;21.80;99.90
17599;DHT22;8918;52.092;5.232;2022-08-05T12:28:34;21.90;99.90
17599;DHT22;8918;52.092;5.232;2022-08-05T12:31:01;22.10;99.90
17599;DHT22;8918;52.092;5.232;2022-08-05T12:33:26;22.10;99.90
17599;DHT22;8918;52.092;5.232;2022-08-05T12:35:54;22.20;99.90
17599;DHT22;8918;52.092;5.232;2022-08-05T12:38:21;22.30;99.90
17599;DHT22;8918;52.092;5.232;2022-08-05T12:40:48;22.10;99.90
17599;DHT22;8918;52.092;5.232;2022-08-05T12:43:14;22.10;99.90
17599;DHT22;8918;52.092;5.232;2022-08-05T12:45:52;22.20;99.90
17599;DHT22;8918;52.092;5.232;2022-08-05T12:48:18;22.30;99.90
17599;DHT22;8918;52.092;5.232;2022-08-05T12:51:13;22.30;99.90
17599;DHT22;8918;52.092;5.232;2022-08-05T12:53:45;22.10;99.90
17599;DHT22;8918;52.092;5.232;2022-08-05T12:56:23;22.10;99.90
17599;DHT22;8918;52.092;5.232;2022-08-05T13:02:00;22.20;99.90
17599;DHT22;8918;52.092;5.232;2022-08-05T13:04:32;22.30;99.90
17599;DHT22;8918;52.092;5.232;2022-08-05T13:07:00;22.30;99.90
17599;DHT22;8918;52.092;5.232;2022-08-05T13:09:27;22.50;99.90
17599;DHT22;8918;52.092;5.232;2022-08-05T13:12:13;22.60;99.90
17599;DHT22;8918;52.092;5.232;2022-08-05T13:14:52;22.70;99.90
17599;DHT22;8918;52.092;5.232;2022-08-05T13:17:23;22.60;99.90
17599;DHT22;8918;52.092;5.232;2022-08-05T13:20:07;22.60;99.90
17599;DHT22;8918;52.092;5.232;2022-08-05T13:22:37;22.50;99.90
17599;DHT22;8918;52.092;5.232;2022-08-05T13:25:08;22.60;99.90
17599;DHT22;8918;52.092;5.232;2022-08-05T13:27:42;22.80;99.90
17599;DHT22;8918;52.092;5.232;2022-08-05T13:30:10;23.10;99.90
17599;DHT22;8918;52.092;5.232;2022-08-05T13:32:37;23.40;99.90
17599;DHT22;8918;52.092;5.232;2022-08-05T13:35:03;23.60;99.90
17599;DHT22;8918;52.092;5.232;2022-08-05T13:37:28;23.90;99.90
17599;DHT22;8918;52.092;5.232;2022-08-05T13:39:54;23.90;99.90
17599;DHT22;8918;52.092;5.232;2022-08-05T13:42:21;23.80;99.90
17599;DHT22;8918;52.092;5.232;2022-08-05T13:44:53;23.90;99.90
17599;DHT22;8918;52.092;5.232;2022-08-05T13:47:19;23.90;99.90
17599;DHT22;8918;52.092;5.232;2022-08-05T13:49:45;23.90;99.90
17599;DHT22;8918;52.092;5.232;2022-08-05T13:52:16;23.90;99.50
17599;DHT22;8918;52.092;5.232;2022-08-05T13:54:42;23.90;99.40
17599;DHT22;8918;52.092;5.232;2022-08-05T13:57:09;24.10;99.90
17599;DHT22;8918;52.092;5.232;2022-08-05T13:59:36;24.20;99.90
17599;DHT22;8918;52.092;5.232;2022-08-05T14:02:03;24.10;99.70
17599;DHT22;8918;52.092;5.232;2022-08-05T14:04:31;23.80;99.90
17599;DHT22;8918;52.092;5.232;2022-08-05T14:07:25;23.40;99.90
17599;DHT22;8918;52.092;5.232;2022-08-05T14:09:50;23.10;99.90
17599;DHT22;8918;52.092;5.232;2022-08-05T14:12:19;23.00;99.90
17599;DHT22;8918;52.092;5.232;2022-08-05T14:14:44;22.80;99.90
17599;DHT22;8918;52.092;5.232;2022-08-05T14:17:10;22.80;99.90
17599;DHT22;8918;52.092;5.232;2022-08-05T14:19:36;22.70;99.90
17599;DHT22;8918;52.092;5.232;2022-08-05T14:22:04;22.50;99.90
17599;DHT22;8918;52.092;5.232;2022-08-05T14:24:29;22.40;99.90
17599;DHT22;8918;52.092;5.232;2022-08-05T14:26:55;22.30;99.90
17599;DHT22;8918;52.092;5.232;2022-08-05T14:29:20;22.30;99.90
17599;DHT22;8918;52.092;5.232;2022-08-05T14:31:46;22.30;99.90
17599;DHT22;8918;52.092;5.232;2022-08-05T14:34:12;22.30;99.90
17599;DHT22;8918;52.092;5.232;2022-08-05T14:36:37;22.40;99.90
17599;DHT22;8918;52.092;5.232;2022-08-05T14:39:03;22.40;99.90
17599;DHT22;8918;52.092;5.232;2022-08-05T14:41:30;22.50;99.90
17599;DHT22;8918;52.092;5.232;2022-08-05T14:43:56;22.60;99.90
17599;DHT22;8918;52.092;5.232;2022-08-05T14:46:23;22.70;99.90
17599;DHT22;8918;52.092;5.232;2022-08-05T14:48:49;22.60;99.90
17599;DHT22;8918;52.092;5.232;2022-08-05T14:51:14;22.80;99.90
17599;DHT22;8918;52.092;5.232;2022-08-05T14:53:40;23.00;99.90
17599;DHT22;8918;52.092;5.232;2022-08-05T14:56:05;23.00;99.90
17599;DHT22;8918;52.092;5.232;2022-08-05T14:58:31;22.90;99.90
17599;DHT22;8918;52.092;5.232;2022-08-05T15:00:56;23.10;99.90
17599;DHT22;8918;52.092;5.232;2022-08-05T15:03:22;23.30;99.90
17599;DHT22;8918;52.092;5.232;2022-08-05T15:05:48;23.30;99.90
17599;DHT22;8918;52.092;5.232;2022-08-05T15:08:13;23.10;99.90
17599;DHT22;8918;52.092;5.232;2022-08-05T15:10:40;22.80;99.90
17599;DHT22;8918;52.092;5.232;2022-08-05T15:13:07;22.70;99.90
17599;DHT22;8918;52.092;5.232;2022-08-05T15:15:33;22.80;99.90
17599;DHT22;8918;52.092;5.232;2022-08-05T15:17:59;22.90;99.90
17599;DHT22;8918;52.092;5.232;2022-08-05T15:20:24;23.20;99.90
17599;DHT22;8918;52.092;5.232;2022-08-05T15:22:50;23.40;99.90
17599;DHT22;8918;52.092;5.232;2022-08-05T15:25:16;23.70;99.90
17599;DHT22;8918;52.092;5.232;2022-08-05T15:27:42;23.90;99.90
17599;DHT22;8918;52.092;5.232;2022-08-05T15:30:08;23.90;99.90
17599;DHT22;8918;52.092;5.232;2022-08-05T15:32:36;24.00;99.90
17599;DHT22;8918;52.092;5.232;2022-08-05T15:35:01;24.00;99.90
17599;DHT22;8918;52.092;5.232;2022-08-05T15:37:27;23.70;99.90
17599;DHT22;8918;52.092;5.232;2022-08-05T15:39:56;23.70;99.90
17599;DHT22;8918;52.092;5.232;2022-08-05T15:42:22;23.60;99.90
17599;DHT22;8918;52.092;5.232;2022-08-05T15:44:52;23.70;99.90
17599;DHT22;8918;52.092;5.232;2022-08-05T15:47:22;23.80;99.90
17599;DHT22;8918;52.092;5.232;2022-08-05T15:49:48;24.20;99.90
17599;DHT22;8918;52.092;5.232;2022-08-05T15:52:15;24.30;99.90
17599;DHT22;8918;52.092;5.232;2022-08-05T15:54:40;24.40;99.90
17599;DHT22;8918;52.092;5.232;2022-08-05T15:57:08;24.40;99.90
17599;DHT22;8918;52.092;5.232;2022-08-05T15:59:34;24.40;99.90
17599;DHT22;8918;52.092;5.232;2022-08-05T16:02:00;24.70;99.90
17599;DHT22;8918;52.092;5.232;2022-08-05T16:04:25;24.70;99.90
17599;DHT22;8918;52.092;5.232;2022-08-05T16:06:55;24.70;99.90
17599;DHT22;8918;52.092;5.232;2022-08-05T16:09:20;24.80;99.90
17599;DHT22;8918;52.092;5.232;2022-08-05T16:11:46;24.50;99.90
17599;DHT22;8918;52.092;5.232;2022-08-05T16:14:12;24.30;99.90
17599;DHT22;8918;52.092;5.232;2022-08-05T16:16:37;24.00;99.90
17599;DHT22;8918;52.092;5.232;2022-08-05T16:19:03;23.90;99.90
17599;DHT22;8918;52.092;5.232;2022-08-05T16:21:29;23.70;99.90
17599;DHT22;8918;52.092;5.232;2022-08-05T16:23:55;23.70;99.90
17599;DHT22;8918;52.092;5.232;2022-08-05T16:26:21;23.60;99.90
17599;DHT22;8918;52.092;5.232;2022-08-05T16:28:46;23.60;99.90
17599;DHT22;8918;52.092;5.232;2022-08-05T16:31:13;23.20;99.90
17599;DHT22;8918;52.092;5.232;2022-08-05T16:33:39;23.30;99.90